Time;durP1;ratioP1;P1;durP2;ratioP2;P2;SDS_P1;SDS_P2;PMS_P1;PMS_P2;Temp;Humidity;BMP_temperature;BMP_pressure;BME280_temperature;BME280_humidity;BME280_pressure;Samples;Min_cycle;Max_cycle;Signal;HPM_P1;HPM_P2
2021/12/03 00:02:21;;;;;;;0.20;0.20;;;8.40;99.90;;;;;;4986244;28;20022;-74
2021/12/03 00:04:47;;;;;;;0.20;0.20;;;8.40;99.90;;;;;;4989144;28;20031;-75
2021/12/03 00:07:13;;;;;;;0.10;0.10;;;8.40;99.90;;;;;;4990760;28;20109;-74
2021/12/03 00:09:39;;;;;;;0.70;0.17;;;8.40;99.90;;;;;;4995000;28;20022;-74
2021/12/03 00:12:06;;;;;;;0.20;0.20;;;8.30;99.90;;;;;;4990512;28;20413;-75
2021/12/03 00:14:34;;;;;;;0.20;0.13;;;8.30;99.90;;;;;;4987820;28;20056;-76
2021/12/03 00:17:01;;;;;;;0.30;0.10;;;8.30;99.90;;;;;;4988395;28;20037;-74
2021/12/03 00:19:27;;;;;;;0.73;0.30;;;8.30;99.90;;;;;;4990385;28;20450;-74
2021/12/03 00:21:53;;;;;;;0.20;0.20;;;8.30;99.90;;;;;;4991315;28;20101;-75
2021/12/03 00:24:18;;;;;;;0.20;0.20;;;8.30;99.90;;;;;;4989905;28;20023;-75
2021/12/03 00:26:44;;;;;;;0.08;0.08;;;8.30;99.90;;;;;;4990450;28;20396;-75
2021/12/03 00:29:10;;;;;;;0.17;0.17;;;8.30;99.90;;;;;;4989849;28;20475;-75
2021/12/03 00:31:36;;;;;;;0.03;0.03;;;8.30;99.90;;;;;;4988775;28;20068;-74
2021/12/03 00:34:03;;;;;;;0.20;0.20;;;8.20;99.90;;;;;;4986799;28;20037;-75
2021/12/03 00:36:29;;;;;;;0.30;0.30;;;8.20;99.90;;;;;;4990256;28;20575;-75
2021/12/03 00:38:58;;;;;;;0.20;0.20;;;8.20;99.90;;;;;;4990539;28;20443;-76
2021/12/03 00:41:28;;;;;;;0.45;0.45;;;8.20;99.90;;;;;;4990886;28;20026;-74
2021/12/03 00:43:54;;;;;;;0.98;0.20;;;8.30;99.90;;;;;;4986136;28;20525;-75
2021/12/03 00:46:22;;;;;;;0.20;0.20;;;8.30;99.90;;;;;;4990461;28;20042;-75
2021/12/03 00:48:52;;;;;;;1.08;0.38;;;8.30;99.90;;;;;;4983886;28;20172;-76
2021/12/03 00:51:20;;;;;;;0.10;0.10;;;8.40;99.90;;;;;;5003870;28;20083;-74
2021/12/03 00:53:47;;;;;;;0.75;0.20;;;8.40;99.90;;;;;;4989853;28;20030;-75
2021/12/03 00:56:13;;;;;;;1.02;0.30;;;8.40;99.90;;;;;;5008511;28;20129;-74
2021/12/03 00:58:39;;;;;;;0.50;0.40;;;8.40;99.90;;;;;;4989002;28;20113;-74
2021/12/03 01:01:06;;;;;;;0.10;0.10;;;8.30;99.90;;;;;;4988868;28;20015;-76
2021/12/03 01:03:33;;;;;;;0.57;0.47;;;8.20;99.90;;;;;;4990252;28;20049;-76
2021/12/03 01:05:59;;;;;;;1.25;1.00;;;8.20;99.90;;;;;;4989324;28;20423;-75
2021/12/03 01:08:24;;;;;;;0.50;0.40;;;8.30;99.90;;;;;;4985408;28;20030;-76
2021/12/03 01:10:51;;;;;;;0.98;0.40;;;8.30;99.90;;;;;;4988046;28;20133;-75
2021/12/03 01:13:17;;;;;;;0.35;0.32;;;8.30;99.90;;;;;;4988148;28;20117;-75
2021/12/03 01:15:43;;;;;;;0.75;0.50;;;8.30;99.90;;;;;;4986118;28;20139;-74
2021/12/03 01:18:10;;;;;;;0.50;0.40;;;8.30;99.90;;;;;;4988782;28;20049;-76
2021/12/03 01:20:38;;;;;;;0.20;0.20;;;8.30;99.90;;;;;;4987091;28;20121;-75
2021/12/03 01:23:05;;;;;;;0.20;0.20;;;8.40;99.90;;;;;;4990266;28;20022;-74
2021/12/03 01:25:31;;;;;;;0.65;0.50;;;8.30;99.90;;;;;;4989068;28;20033;-75
2021/12/03 01:27:59;;;;;;;0.55;0.50;;;8.30;99.90;;;;;;4988005;28;20019;-76
2021/12/03 01:30:26;;;;;;;1.02;0.55;;;8.50;99.90;;;;;;4984825;28;20037;-76
2021/12/03 01:32:52;;;;;;;0.30;0.30;;;8.50;99.90;;;;;;4988113;28;20035;-75
2021/12/03 01:35:19;;;;;;;1.77;0.50;;;8.50;99.90;;;;;;4987864;28;20361;-75
2021/12/03 01:37:46;;;;;;;0.28;0.28;;;8.30;99.90;;;;;;4983983;28;20022;-75
2021/12/03 01:40:17;;;;;;;0.20;0.13;;;8.20;99.90;;;;;;4986112;28;20034;-76
2021/12/03 01:42:45;;;;;;;1.00;0.45;;;8.20;99.90;;;;;;4987427;28;20030;-75
2021/12/03 01:45:16;;;;;;;0.20;0.20;;;8.30;99.90;;;;;;4986911;28;21419;-75
2021/12/03 01:47:44;;;;;;;0.35;0.30;;;8.30;99.90;;;;;;4988798;28;20043;-75
2021/12/03 01:50:11;;;;;;;0.70;0.30;;;8.30;99.90;;;;;;4984196;28;20041;-76
2021/12/03 01:52:38;;;;;;;0.55;0.30;;;8.40;99.90;;;;;;4988438;28;20046;-76
2021/12/03 01:55:06;;;;;;;1.65;0.20;;;8.40;99.90;;;;;;4986994;28;20019;-76
2021/12/03 01:57:32;;;;;;;1.80;0.47;;;8.40;99.90;;;;;;4987802;28;20075;-76
2021/12/03 01:59:57;;;;;;;0.22;0.20;;;8.30;99.90;;;;;;4989064;28;20042;-76
2021/12/03 02:02:24;;;;;;;0.38;0.38;;;8.30;99.90;;;;;;4988420;28;20091;-74
2021/12/03 02:04:50;;;;;;;1.33;0.32;;;8.30;99.90;;;;;;4995609;28;20030;-76
2021/12/03 02:07:15;;;;;;;0.22;0.10;;;8.30;99.90;;;;;;4999689;28;20046;-76
2021/12/03 02:09:41;;;;;;;0.82;0.32;;;8.30;99.90;;;;;;4996846;28;20113;-74
2021/12/03 02:12:07;;;;;;;0.25;0.25;;;8.30;99.90;;;;;;4997196;28;20080;-75
2021/12/03 02:14:33;;;;;;;0.35;0.32;;;8.30;99.90;;;;;;4997637;28;20042;-75
2021/12/03 02:16:59;;;;;;;0.28;0.28;;;8.30;99.90;;;;;;4990212;28;20034;-75
2021/12/03 02:19:25;;;;;;;0.40;0.40;;;8.30;99.90;;;;;;4984645;28;20477;-75
2021/12/03 02:21:50;;;;;;;0.30;0.30;;;8.30;99.90;;;;;;4992248;28;20356;-76
2021/12/03 02:24:21;;;;;;;0.20;0.20;;;8.30;99.90;;;;;;4992393;28;20461;-75
2021/12/03 02:26:47;;;;;;;0.43;0.20;;;8.30;99.90;;;;;;4991317;28;20034;-74
2021/12/03 02:29:12;;;;;;;0.30;0.30;;;8.40;99.90;;;;;;4989770;28;20129;-73
2021/12/03 02:31:38;;;;;;;0.30;0.20;;;8.40;99.90;;;;;;4990620;28;20034;-74
2021/12/03 02:34:04;;;;;;;0.30;0.30;;;8.40;99.90;;;;;;4990821;28;20025;-74
2021/12/03 02:36:30;;;;;;;1.48;0.35;;;8.30;99.90;;;;;;4990456;28;20093;-74
2021/12/03 02:38:56;;;;;;;0.45;0.30;;;8.40;99.90;;;;;;4990434;28;20022;-75
2021/12/03 02:41:22;;;;;;;0.75;0.22;;;8.30;99.90;;;;;;4990872;28;20058;-75
2021/12/03 02:43:47;;;;;;;0.20;0.20;;;8.30;99.90;;;;;;4986638;28;20023;-75
2021/12/03 02:46:13;;;;;;;1.75;0.30;;;8.30;99.90;;;;;;4997526;28;20516;-74
2021/12/03 02:48:39;;;;;;;0.32;0.30;;;8.30;99.90;;;;;;4995088;28;20159;-75
2021/12/03 02:51:07;;;;;;;0.30;0.30;;;8.30;99.90;;;;;;4989346;28;20018;-74
2021/12/03 02:53:33;;;;;;;0.20;0.20;;;8.40;99.90;;;;;;4986135;28;20184;-74
2021/12/03 02:56:00;;;;;;;0.38;0.20;;;8.30;99.90;;;;;;4995498;28;20034;-75
2021/12/03 02:58:26;;;;;;;0.47;0.20;;;8.40;99.90;;;;;;4994576;28;20448;-75
2021/12/03 03:00:52;;;;;;;0.30;0.30;;;8.30;99.90;;;;;;4989980;28;20141;-74
2021/12/03 03:03:18;;;;;;;0.20;0.20;;;8.30;99.90;;;;;;4988736;28;20384;-74
2021/12/03 03:05:59;;;;;;;1.23;0.47;;;8.30;99.90;;;;;;4991110;28;20033;-75
2021/12/03 03:08:26;;;;;;;0.22;0.20;;;8.30;99.90;;;;;;4989242;28;20022;-75
2021/12/03 03:10:52;;;;;;;0.60;0.30;;;8.30;99.90;;;;;;4990163;28;20041;-75
2021/12/03 03:13:18;;;;;;;4.03;0.35;;;8.40;99.90;;;;;;4983359;28;20150;-75
2021/12/03 03:15:44;;;;;;;1.40;0.60;;;8.40;99.90;;;;;;4989666;28;20109;-74
2021/12/03 03:18:17;;;;;;;0.10;0.10;;;8.30;99.90;;;;;;4986530;28;20530;-75
2021/12/03 03:20:44;;;;;;;0.47;0.20;;;8.20;99.90;;;;;;4987422;28;20022;-75
2021/12/03 03:23:12;;;;;;;0.52;0.30;;;8.40;99.90;;;;;;4987500;28;20156;-75
2021/12/03 03:25:42;;;;;;;0.45;0.40;;;8.40;99.90;;;;;;4988778;28;20391;-75
2021/12/03 03:28:10;;;;;;;0.20;0.20;;;8.50;99.90;;;;;;4988188;28;20503;-75
2021/12/03 03:30:37;;;;;;;0.35;0.35;;;8.40;99.90;;;;;;4989393;28;20034;-74
2021/12/03 03:33:04;;;;;;;0.15;0.15;;;8.40;99.90;;;;;;4990892;28;20045;-75
2021/12/03 03:35:30;;;;;;;0.15;0.15;;;8.50;99.90;;;;;;4991126;28;20023;-75
2021/12/03 03:37:56;;;;;;;0.65;0.30;;;8.50;99.90;;;;;;4988103;28;20038;-75
2021/12/03 03:40:22;;;;;;;0.15;0.15;;;8.50;99.90;;;;;;4990194;28;20034;-76
2021/12/03 03:42:48;;;;;;;0.20;0.20;;;8.50;99.90;;;;;;4984943;28;20033;-76
2021/12/03 03:45:18;;;;;;;0.20;0.20;;;8.40;99.90;;;;;;4988047;28;20353;-74
2021/12/03 03:47:44;;;;;;;1.13;0.30;;;8.30;99.90;;;;;;4987590;28;20022;-74
2021/12/03 03:50:12;;;;;;;3.92;0.32;;;8.40;99.90;;;;;;4989994;28;20555;-75
2021/12/03 03:52:39;;;;;;;0.70;0.40;;;8.50;99.90;;;;;;4987910;28;20125;-75
2021/12/03 03:55:06;;;;;;;0.50;0.30;;;8.50;99.90;;;;;;4988701;28;20399;-75
2021/12/03 03:57:32;;;;;;;0.82;0.40;;;8.50;99.90;;;;;;4981439;28;20071;-75
2021/12/03 03:59:58;;;;;;;0.40;0.40;;;8.40;99.90;;;;;;4985989;28;20042;-74
2021/12/03 04:02:24;;;;;;;0.25;0.22;;;8.40;99.90;;;;;;4989111;28;20050;-74
2021/12/03 04:04:50;;;;;;;0.30;0.30;;;8.40;99.90;;;;;;4988133;28;20026;-75
2021/12/03 04:07:16;;;;;;;0.40;0.30;;;8.40;99.90;;;;;;4989342;28;20028;-75
2021/12/03 04:09:42;;;;;;;0.20;0.20;;;8.30;99.90;;;;;;4990935;28;20098;-75
2021/12/03 04:12:08;;;;;;;0.38;0.38;;;8.30;99.90;;;;;;4989486;28;20100;-75
2021/12/03 04:14:34;;;;;;;0.63;0.47;;;8.40;99.90;;;;;;4987967;28;20034;-75
2021/12/03 04:16:59;;;;;;;0.30;0.30;;;8.40;99.90;;;;;;4987037;28;20084;-75
2021/12/03 04:19:26;;;;;;;0.77;0.40;;;8.30;99.90;;;;;;4990357;28;20046;-75
2021/12/03 04:21:52;;;;;;;0.55;0.30;;;8.20;99.90;;;;;;4988128;28;20022;-74
2021/12/03 04:24:18;;;;;;;0.15;0.15;;;8.10;99.90;;;;;;4990064;28;20076;-75
2021/12/03 04:26:43;;;;;;;1.02;0.40;;;8.10;99.90;;;;;;4988144;28;20034;-75
2021/12/03 04:29:09;;;;;;;0.43;0.30;;;8.10;99.90;;;;;;4989635;28;20030;-75
2021/12/03 04:31:35;;;;;;;0.30;0.30;;;8.10;99.90;;;;;;4989361;28;20113;-74
2021/12/03 04:34:01;;;;;;;0.47;0.28;;;8.30;99.90;;;;;;4989402;28;20033;-74
2021/12/03 04:36:27;;;;;;;0.82;0.30;;;8.20;99.90;;;;;;4990460;28;20026;-74
2021/12/03 04:38:53;;;;;;;0.55;0.40;;;8.20;99.90;;;;;;4989715;28;20026;-74
2021/12/03 04:41:19;;;;;;;0.50;0.50;;;8.20;99.90;;;;;;4986634;28;20022;-74
2021/12/03 04:43:45;;;;;;;0.80;0.38;;;8.20;99.90;;;;;;4984488;28;20061;-74
2021/12/03 04:46:10;;;;;;;1.83;0.47;;;8.10;99.90;;;;;;4987786;28;20490;-75
2021/12/03 04:48:36;;;;;;;0.55;0.47;;;8.10;99.90;;;;;;4990210;28;20042;-74
2021/12/03 04:51:03;;;;;;;2.85;2.40;;;8.10;99.90;;;;;;4984936;28;20058;-74
2021/12/03 04:53:28;;;;;;;0.20;0.20;;;8.10;99.90;;;;;;4990171;28;20081;-75
2021/12/03 04:55:54;;;;;;;1.05;0.47;;;8.00;99.90;;;;;;4987675;28;20485;-75
2021/12/03 04:58:20;;;;;;;1.00;0.20;;;8.20;99.90;;;;;;4987431;28;20034;-74
2021/12/03 05:00:51;;;;;;;0.30;0.30;;;8.20;99.90;;;;;;4981607;28;20031;-75
2021/12/03 05:03:17;;;;;;;0.20;0.20;;;8.20;99.90;;;;;;4987845;28;20104;-75
2021/12/03 05:05:49;;;;;;;1.38;1.17;;;8.20;99.90;;;;;;4986992;28;20134;-74
2021/12/03 05:08:15;;;;;;;0.30;0.30;;;8.20;99.90;;;;;;4989715;28;20410;-75
2021/12/03 05:10:42;;;;;;;0.63;0.30;;;8.20;99.90;;;;;;4982285;28;20039;-75
2021/12/03 05:13:18;;;;;;;2.67;0.50;;;8.20;99.90;;;;;;4990804;28;20022;-74
2021/12/03 05:15:46;;;;;;;0.68;0.50;;;8.10;99.90;;;;;;4989222;28;20492;-75
2021/12/03 05:18:15;;;;;;;0.77;0.63;;;8.20;99.90;;;;;;4985952;28;20039;-75
2021/12/03 05:20:42;;;;;;;0.68;0.68;;;8.30;99.90;;;;;;4988139;28;20030;-75
2021/12/03 05:23:08;;;;;;;0.60;0.60;;;8.30;99.90;;;;;;4992625;28;20094;-74
2021/12/03 05:25:35;;;;;;;0.55;0.40;;;8.20;99.90;;;;;;4994121;28;20074;-75
2021/12/03 05:28:01;;;;;;;1.08;0.75;;;8.30;99.90;;;;;;4986708;28;20046;-75
2021/12/03 05:30:42;;;;;;;0.60;0.60;;;8.30;99.90;;;;;;4993886;28;20061;-75
2021/12/03 05:33:09;;;;;;;0.52;0.32;;;8.30;99.90;;;;;;4996275;28;20044;-76
2021/12/03 05:35:38;;;;;;;0.40;0.40;;;8.30;99.90;;;;;;4995606;28;20026;-76
2021/12/03 05:38:04;;;;;;;1.27;0.82;;;8.20;99.90;;;;;;4988358;28;20733;-75
2021/12/03 05:40:31;;;;;;;0.52;0.43;;;8.10;99.90;;;;;;4991654;28;20026;-76
2021/12/03 05:42:57;;;;;;;0.63;0.47;;;8.10;99.90;;;;;;4990859;28;20113;-75
2021/12/03 05:45:29;;;;;;;1.77;0.57;;;8.00;99.90;;;;;;4991770;28;20121;-74
2021/12/03 05:47:55;;;;;;;0.50;0.50;;;8.10;99.90;;;;;;4998853;28;20058;-74
2021/12/03 05:50:22;;;;;;;0.98;0.93;;;8.00;99.90;;;;;;4994943;28;20066;-74
2021/12/03 05:52:49;;;;;;;0.30;0.30;;;8.00;99.90;;;;;;4997563;28;20100;-75
2021/12/03 05:55:15;;;;;;;0.93;0.38;;;8.00;99.90;;;;;;5000395;28;20026;-75
2021/12/03 05:57:42;;;;;;;0.65;0.43;;;8.00;99.90;;;;;;5000339;28;20062;-74
2021/12/03 06:00:25;;;;;;;0.68;0.68;;;8.00;99.90;;;;;;4992109;28;20084;-74
2021/12/03 06:02:52;;;;;;;0.80;0.35;;;8.00;99.90;;;;;;5001452;28;20507;-74
2021/12/03 06:05:22;;;;;;;0.82;0.60;;;8.00;99.90;;;;;;4994336;28;20030;-75
2021/12/03 06:07:48;;;;;;;1.10;0.73;;;8.00;99.90;;;;;;4999497;28;20179;-75
2021/12/03 06:10:14;;;;;;;1.20;0.70;;;8.00;99.90;;;;;;5000772;28;20041;-74
2021/12/03 06:12:39;;;;;;;0.30;0.30;;;8.00;99.90;;;;;;4999372;28;20435;-75
2021/12/03 06:15:05;;;;;;;0.93;0.50;;;8.10;99.90;;;;;;4999133;28;20050;-74
2021/12/03 06:17:31;;;;;;;1.08;0.20;;;8.10;99.90;;;;;;5008796;28;20030;-74
2021/12/03 06:19:57;;;;;;;0.60;0.60;;;8.10;99.90;;;;;;5003855;28;20046;-75
2021/12/03 06:22:23;;;;;;;1.98;0.55;;;8.00;99.90;;;;;;4999386;28;20026;-74
2021/12/03 06:24:49;;;;;;;0.55;0.55;;;8.10;99.90;;;;;;5003132;28;20041;-74
2021/12/03 06:27:14;;;;;;;0.30;0.30;;;8.00;99.90;;;;;;5005968;28;20054;-73
2021/12/03 06:29:40;;;;;;;0.40;0.40;;;8.10;99.90;;;;;;4999566;28;20034;-75
2021/12/03 06:32:09;;;;;;;0.70;0.60;;;8.20;99.90;;;;;;5010524;28;20085;-75
2021/12/03 06:34:35;;;;;;;0.40;0.40;;;8.20;99.90;;;;;;5008367;28;20031;-75
2021/12/03 06:37:01;;;;;;;1.20;0.80;;;8.30;99.90;;;;;;5009224;28;20086;-75
2021/12/03 06:39:27;;;;;;;1.35;1.30;;;8.30;99.90;;;;;;5001742;28;20439;-75
2021/12/03 06:41:53;;;;;;;0.88;0.75;;;8.30;99.90;;;;;;4997730;28;20034;-69
2021/12/03 06:44:18;;;;;;;0.93;0.50;;;8.30;99.90;;;;;;4991189;28;20474;-68
2021/12/03 06:46:44;;;;;;;0.70;0.70;;;8.30;99.90;;;;;;4990572;28;20353;-68
2021/12/03 06:49:10;;;;;;;1.30;0.50;;;8.30;99.90;;;;;;4992934;28;20034;-68
2021/12/03 06:51:44;;;;;;;1.40;0.75;;;8.20;99.90;;;;;;4994000;28;20109;-68
2021/12/03 06:54:11;;;;;;;0.40;0.40;;;8.20;99.90;;;;;;4993466;28;20058;-67
2021/12/03 06:56:51;;;;;;;0.85;0.65;;;8.20;99.90;;;;;;4992557;28;20101;-68
2021/12/03 06:59:18;;;;;;;0.50;0.50;;;8.20;99.90;;;;;;4991420;28;20027;-69
2021/12/03 07:01:44;;;;;;;0.60;0.50;;;8.20;99.90;;;;;;4991537;28;20377;-69
2021/12/03 07:04:11;;;;;;;0.73;0.73;;;8.20;99.90;;;;;;4982504;28;20582;-69
2021/12/03 07:06:37;;;;;;;3.00;1.42;;;8.20;99.90;;;;;;4983073;28;20045;-69
2021/12/03 07:09:04;;;;;;;0.80;0.60;;;8.20;99.90;;;;;;4987616;28;20381;-69
2021/12/03 07:11:30;;;;;;;3.60;0.80;;;8.20;99.90;;;;;;4983737;28;20026;-69
2021/12/03 07:13:56;;;;;;;2.92;0.90;;;8.20;99.90;;;;;;4986851;28;20579;-69
2021/12/03 07:16:22;;;;;;;0.93;0.68;;;8.20;99.90;;;;;;4990051;28;20053;-68
2021/12/03 07:18:48;;;;;;;1.30;0.90;;;8.20;99.90;;;;;;4987894;28;20367;-70
2021/12/03 07:21:14;;;;;;;1.15;0.75;;;8.20;99.90;;;;;;4983380;28;20038;-69
2021/12/03 07:23:40;;;;;;;1.30;0.75;;;8.30;99.90;;;;;;4983425;28;20208;-69
2021/12/03 07:26:06;;;;;;;0.70;0.70;;;8.30;99.90;;;;;;4982488;28;20550;-68
2021/12/03 07:28:32;;;;;;;0.98;0.93;;;8.30;99.90;;;;;;4983662;28;20073;-67
2021/12/03 07:30:59;;;;;;;3.55;1.05;;;8.30;99.90;;;;;;4982255;28;20038;-68
2021/12/03 07:33:26;;;;;;;2.70;2.50;;;8.40;99.90;;;;;;4981911;28;20034;-69
2021/12/03 07:35:52;;;;;;;1.25;0.70;;;8.40;99.90;;;;;;4982007;28;21286;-68
2021/12/03 07:38:18;;;;;;;1.48;1.35;;;8.50;99.90;;;;;;4980224;28;20026;-68
2021/12/03 07:40:48;;;;;;;0.73;0.63;;;8.50;99.90;;;;;;4983457;28;20025;-68
2021/12/03 07:43:16;;;;;;;1.73;1.10;;;8.50;99.90;;;;;;4981624;28;20038;-67
2021/12/03 07:45:42;;;;;;;0.82;0.75;;;8.60;99.90;;;;;;4987427;28;20038;-70
2021/12/03 07:48:08;;;;;;;1.58;0.80;;;8.60;99.90;;;;;;4992375;28;20041;-68
2021/12/03 07:50:36;;;;;;;0.77;0.70;;;8.70;99.90;;;;;;4990393;28;20384;-68
2021/12/03 07:53:06;;;;;;;0.95;0.90;;;8.70;99.90;;;;;;4990170;28;20049;-69
2021/12/03 07:55:32;;;;;;;0.90;0.80;;;8.70;99.90;;;;;;4998983;28;20030;-68
2021/12/03 07:57:58;;;;;;;1.40;1.15;;;8.70;99.90;;;;;;4989653;28;20401;-68
2021/12/03 08:00:24;;;;;;;1.33;1.05;;;8.90;99.90;;;;;;4994389;28;20018;-69
2021/12/03 08:02:50;;;;;;;0.60;0.60;;;8.90;99.90;;;;;;4992488;28;20034;-70
2021/12/03 08:05:16;;;;;;;0.85;0.65;;;9.00;99.90;;;;;;4992577;28;20030;-69
2021/12/03 08:07:46;;;;;;;1.23;1.13;;;9.00;99.90;;;;;;4989274;28;20081;-69
2021/12/03 08:10:13;;;;;;;0.35;0.35;;;9.00;99.90;;;;;;4986709;28;20034;-70
2021/12/03 08:12:40;;;;;;;0.80;0.65;;;9.00;99.90;;;;;;4991730;28;20061;-68
2021/12/03 08:15:07;;;;;;;0.43;0.43;;;9.00;99.90;;;;;;4995059;28;20113;-70
2021/12/03 08:17:33;;;;;;;0.90;0.80;;;9.10;99.90;;;;;;4993073;28;20032;-68
2021/12/03 08:19:58;;;;;;;2.28;0.73;;;9.10;99.90;;;;;;4988268;28;20392;-69
2021/12/03 08:22:24;;;;;;;1.23;0.90;;;9.20;99.90;;;;;;4993186;28;20250;-68
2021/12/03 08:24:50;;;;;;;1.33;1.05;;;9.30;99.90;;;;;;4993316;28;20030;-68
2021/12/03 08:27:16;;;;;;;1.02;0.70;;;9.30;99.90;;;;;;4991523;28;20125;-68
2021/12/03 08:29:42;;;;;;;1.73;1.13;;;9.30;99.90;;;;;;5000445;28;20068;-67
2021/12/03 08:32:10;;;;;;;1.60;1.02;;;9.30;99.90;;;;;;4991996;28;20038;-68
2021/12/03 08:34:36;;;;;;;4.00;0.82;;;9.30;99.90;;;;;;4993889;28;20019;-69
2021/12/03 08:37:02;;;;;;;1.25;0.40;;;9.30;99.90;;;;;;4989444;28;20026;-68
2021/12/03 08:39:29;;;;;;;0.93;0.70;;;9.30;99.90;;;;;;4991319;28;20030;-68
2021/12/03 08:41:55;;;;;;;1.38;0.77;;;9.30;99.90;;;;;;4991104;28;20137;-68
2021/12/03 08:44:21;;;;;;;0.80;0.77;;;9.30;99.90;;;;;;4984972;28;20034;-68
2021/12/03 08:46:51;;;;;;;0.45;0.45;;;9.40;99.90;;;;;;4993890;28;20105;-68
2021/12/03 08:54:52;;;;;;;0.85;0.80;;;9.40;99.90;;;;;;4985345;28;20042;-68
2021/12/03 08:57:21;;;;;;;0.77;0.77;;;9.50;99.90;;;;;;4988167;28;20373;-68
2021/12/03 08:59:47;;;;;;;3.05;0.80;;;9.50;99.90;;;;;;5004968;28;20522;-69
2021/12/03 09:02:13;;;;;;;0.60;0.57;;;9.70;99.90;;;;;;4989573;28;20062;-69
2021/12/03 09:04:38;;;;;;;1.35;0.70;;;9.80;99.90;;;;;;4989934;28;20027;-69
2021/12/03 09:07:05;;;;;;;0.55;0.55;;;9.80;99.90;;;;;;4990604;28;20435;-68
2021/12/03 09:09:31;;;;;;;0.40;0.40;;;9.70;99.90;;;;;;4990429;28;20019;-67
2021/12/03 09:11:57;;;;;;;0.60;0.60;;;9.70;99.90;;;;;;4990487;28;20102;-68
2021/12/03 09:14:45;;;;;;;1.90;0.80;;;9.70;99.90;;;;;;4993823;28;20489;-67
2021/12/03 09:19:52;;;;;;;1.80;0.77;;;9.70;99.90;;;;;;4994185;28;20026;-67
2021/12/03 09:22:31;;;;;;;1.70;0.95;;;9.80;99.90;;;;;;4994330;28;20030;-68
2021/12/03 09:24:56;;;;;;;3.10;0.80;;;9.80;99.90;;;;;;4993874;28;20374;-68
2021/12/03 09:27:22;;;;;;;3.40;0.80;;;9.70;99.90;;;;;;4994255;28;20033;-69
2021/12/03 09:29:49;;;;;;;0.57;0.55;;;9.80;99.90;;;;;;4994456;28;20038;-69
2021/12/03 09:32:21;;;;;;;1.25;1.00;;;9.90;99.90;;;;;;4994301;28;20496;-70
2021/12/03 09:34:48;;;;;;;0.93;0.88;;;10.00;99.90;;;;;;4996335;28;20027;-68
2021/12/03 09:37:13;;;;;;;0.63;0.63;;;10.00;99.90;;;;;;4994782;28;20489;-67
2021/12/03 09:39:42;;;;;;;2.63;0.95;;;10.00;99.90;;;;;;4998120;28;20030;-69
2021/12/03 09:42:07;;;;;;;0.70;0.65;;;10.00;99.90;;;;;;4994602;28;20026;-70
2021/12/03 09:44:37;;;;;;;1.55;0.73;;;10.00;99.90;;;;;;4994162;28;20105;-68
2021/12/03 09:47:04;;;;;;;1.25;0.57;;;10.00;99.90;;;;;;4993635;28;20053;-67
2021/12/03 09:49:35;;;;;;;1.65;0.95;;;10.00;99.90;;;;;;4993761;28;20065;-69
2021/12/03 09:54:39;;;;;;;0.85;0.80;;;10.20;99.90;;;;;;4994585;28;20042;-69
2021/12/03 09:57:10;;;;;;;2.72;0.75;;;10.20;99.90;;;;;;4993522;28;20512;-68
2021/12/03 10:13:10;;;;;;;6.35;0.85;;;10.50;99.90;;;;;;5013132;28;20495;-68
2021/12/03 10:15:59;;;;;;;0.90;0.73;;;10.50;99.90;;;;;;4993755;28;20038;-67
2021/12/03 10:18:33;;;;;;;0.77;0.77;;;10.40;99.90;;;;;;4993341;28;20022;-68
2021/12/03 10:21:08;;;;;;;0.73;0.60;;;10.30;99.90;;;;;;4993426;28;20026;-68
2021/12/03 10:34:02;;;;;;;0.63;0.60;;;10.30;99.90;;;;;;5004641;28;20033;-68
2021/12/03 11:00:43;;;;;;;1.23;1.15;;;9.90;99.90;;;;;;4992881;28;20321;-68
2021/12/03 11:33:33;;;;;;;1.85;1.00;;;10.30;99.90;;;;;;4993339;28;20068;-68
2021/12/03 11:39:53;;;;;;;0.60;0.50;;;10.30;99.90;;;;;;4992088;28;20057;-68
2021/12/03 12:27:14;;;;;;;1.15;0.75;;;10.20;99.90;;;;;;4990498;28;20116;-67
2021/12/03 14:44:55;;;;;;;0.80;0.77;;;9.20;99.90;;;;;;4981706;28;20039;-69
2021/12/03 14:53:20;;;;;;;0.50;0.50;;;9.20;99.90;;;;;;4988927;28;20018;-67
2021/12/03 14:55:57;;;;;;;1.63;1.00;;;9.20;99.90;;;;;;4992188;28;20065;-69
2021/12/03 14:58:31;;;;;;;1.13;0.95;;;9.10;99.90;;;;;;4991152;28;20057;-68
2021/12/03 15:01:26;;;;;;;1.10;1.00;;;9.10;99.90;;;;;;4989942;28;20030;-68
2021/12/03 15:04:29;;;;;;;1.15;1.05;;;9.10;99.90;;;;;;4974628;28;20042;-69
2021/12/03 15:06:39;;;;;;;1.13;1.00;;;9.00;99.90;;;;;;4983829;28;20531;-69
2021/12/03 15:09:18;;;;;;;1.77;1.27;;;8.90;99.90;;;;;;4988567;28;20085;-69
2021/12/03 15:24:59;;;;;;;1.45;1.10;;;8.60;99.90;;;;;;4987194;28;20034;-68
2021/12/03 15:30:22;;;;;;;2.22;0.82;;;8.50;99.90;;;;;;4989608;28;20042;-69
2021/12/03 15:32:54;;;;;;;1.30;1.20;;;8.50;99.90;;;;;;4987690;28;20076;-69
2021/12/03 15:36:25;;;;;;;2.55;1.20;;;8.50;99.90;;;;;;4988022;28;20514;-68
2021/12/03 16:10:22;;;;;;;2.17;1.50;;;7.90;99.90;;;;;;4988859;28;20412;-77
2021/12/03 16:13:02;;;;;;;1.33;1.15;;;7.90;99.90;;;;;;4990561;28;20023;-77
2021/12/03 16:54:05;;;;;;;2.03;1.77;;;7.60;99.90;;;;;;4986203;28;20030;-77
2021/12/03 16:56:32;;;;;;;2.63;2.40;;;7.60;99.90;;;;;;4988204;28;20026;-77
2021/12/03 16:58:59;;;;;;;2.42;2.22;;;7.50;99.90;;;;;;4989837;28;20022;-76
2021/12/03 17:14:44;;;;;;;4.30;2.28;;;7.40;99.90;;;;;;4989495;28;20061;-77
2021/12/03 17:23:30;;;;;;;3.42;3.05;;;7.40;99.90;;;;;;4991013;28;20022;-76
2021/12/03 17:50:05;;;;;;;2.85;2.58;;;7.30;99.90;;;;;;4950637;29;20031;-77
2021/12/03 17:58:14;;;;;;;4.32;3.88;;;7.20;99.90;;;;;;4992717;28;20412;-76
2021/12/03 18:09:40;;;;;;;4.30;2.92;;;7.20;99.90;;;;;;4993264;28;20069;-75
2021/12/03 18:43:16;;;;;;;5.65;4.80;;;7.00;99.90;;;;;;4993371;28;20026;-75
2021/12/03 18:56:47;;;;;;;7.95;5.32;;;6.50;99.90;;;;;;4990264;28;20121;-76
2021/12/03 18:59:13;;;;;;;7.20;4.18;;;6.60;99.90;;;;;;4986508;28;20415;-76
2021/12/03 19:01:39;;;;;;;9.07;5.63;;;6.60;99.90;;;;;;4991394;28;20084;-79
2021/12/03 19:06:37;;;;;;;10.75;4.80;;;6.50;99.90;;;;;;4992622;28;20473;-77
2021/12/03 19:14:02;;;;;;;4.88;3.88;;;6.50;99.90;;;;;;4988950;28;20163;-75
2021/12/03 19:16:28;;;;;;;5.97;5.38;;;6.60;99.90;;;;;;4989709;28;20093;-76
2021/12/03 19:18:57;;;;;;;6.15;5.45;;;6.50;99.90;;;;;;4994146;28;20046;-77
2021/12/03 19:21:26;;;;;;;7.72;5.28;;;6.50;99.90;;;;;;4989633;28;20034;-77
2021/12/03 19:23:59;;;;;;;5.57;4.00;;;6.50;99.90;;;;;;4992047;28;20034;-78
2021/12/03 19:26:27;;;;;;;7.68;6.35;;;6.60;99.90;;;;;;4990218;28;20034;-76
2021/12/03 19:28:54;;;;;;;7.45;5.38;;;6.60;99.90;;;;;;4992793;28;20042;-78
2021/12/03 19:31:23;;;;;;;8.75;6.60;;;6.60;99.90;;;;;;4988732;28;20113;-76
2021/12/03 19:33:49;;;;;;;6.97;5.72;;;6.50;99.90;;;;;;4991877;28;20030;-76
2021/12/03 19:36:25;;;;;;;7.07;5.47;;;6.40;99.90;;;;;;4990785;28;20026;-76
2021/12/03 19:38:54;;;;;;;10.43;5.78;;;6.40;99.90;;;;;;4997931;28;20022;-76
2021/12/03 19:43:56;;;;;;;6.20;4.82;;;6.40;99.90;;;;;;4992514;28;20496;-76
2021/12/03 19:46:30;;;;;;;5.53;4.75;;;6.30;99.90;;;;;;4988638;28;20087;-77
2021/12/03 19:51:26;;;;;;;7.40;5.18;;;6.30;99.90;;;;;;4990646;28;20379;-76
2021/12/03 19:56:23;;;;;;;6.90;6.18;;;6.40;99.90;;;;;;4989778;28;20030;-75
2021/12/03 19:58:49;;;;;;;8.23;5.93;;;6.40;99.90;;;;;;4993494;28;20088;-77
2021/12/03 20:01:15;;;;;;;7.00;5.55;;;6.40;99.90;;;;;;4989831;28;20058;-76
2021/12/03 20:03:40;;;;;;;7.82;4.85;;;6.30;99.90;;;;;;4990769;28;20057;-77
2021/12/03 20:06:06;;;;;;;6.32;4.60;;;6.30;99.90;;;;;;4991100;28;20050;-75
2021/12/03 20:08:34;;;;;;;6.68;6.00;;;6.30;99.90;;;;;;4992106;28;20097;-76
2021/12/03 20:11:04;;;;;;;7.35;5.55;;;6.30;99.90;;;;;;4993019;28;20018;-77
2021/12/03 20:13:30;;;;;;;6.13;5.50;;;6.30;99.90;;;;;;4995118;28;20034;-77
2021/12/03 20:19:20;;;;;;;6.07;4.47;;;6.40;99.90;;;;;;4991079;28;20118;-76
2021/12/03 20:21:21;;;;;;;5.93;3.78;;;6.50;99.90;;;;;;4985984;28;20050;-77
2021/12/03 20:24:18;;;;;;;4.70;3.45;;;6.50;99.90;;;;;;4995097;28;20455;-77
2021/12/03 20:26:52;;;;;;;4.05;3.42;;;6.50;99.90;;;;;;4991884;28;20026;-77
2021/12/03 20:29:22;;;;;;;7.07;4.60;;;6.50;99.90;;;;;;4985424;28;20406;-76
2021/12/03 20:32:01;;;;;;;3.92;3.53;;;6.50;99.90;;;;;;4989558;28;20499;-76
2021/12/03 20:37:07;;;;;;;4.10;3.38;;;6.50;99.90;;;;;;4993548;28;20109;-76
2021/12/03 20:39:36;;;;;;;4.78;3.88;;;6.50;99.90;;;;;;4994839;28;20018;-76
2021/12/03 20:47:24;;;;;;;5.35;3.85;;;6.50;99.90;;;;;;4988498;28;20432;-76
2021/12/03 20:52:42;;;;;;;4.60;4.15;;;6.40;99.90;;;;;;4987862;28;20037;-75
2021/12/03 20:58:05;;;;;;;3.53;3.22;;;6.30;99.90;;;;;;4988042;28;20519;-75
2021/12/03 21:08:52;;;;;;;3.65;3.35;;;6.40;99.90;;;;;;4997585;28;20435;-75
2021/12/03 21:14:19;;;;;;;6.15;3.35;;;6.50;99.90;;;;;;4987102;28;20034;-76
2021/12/03 21:19:35;;;;;;;8.48;3.75;;;6.40;99.90;;;;;;4979135;28;20118;-75
2021/12/03 21:22:08;;;;;;;3.80;3.10;;;6.30;99.90;;;;;;4992538;28;20472;-76
2021/12/03 21:24:40;;;;;;;3.92;3.03;;;6.40;99.90;;;;;;4995903;28;21137;-76
2021/12/03 21:27:11;;;;;;;3.15;2.83;;;6.40;99.90;;;;;;4994250;28;20117;-77
2021/12/03 21:32:21;;;;;;;3.92;3.47;;;6.30;99.90;;;;;;4995319;28;20033;-75
2021/12/03 21:40:26;;;;;;;3.97;3.55;;;6.20;99.90;;;;;;4989837;28;20033;-74